Time;durP1;ratioP1;P1;durP2;ratioP2;P2;SDS_P1;SDS_P2;PMS_P1;PMS_P2;Temp;Humidity;BMP_temperature;BMP_pressure;BME280_temperature;BME280_humidity;BME280_pressure;Samples;Min_cycle;Max_cycle;Signal;HPM_P1;HPM_P2
2021/11/23 00:01:49;;;;;;;15.85;7.38;;;;;;;2.06;100.00;103223.28;5024996;28;20069;-68
2021/11/23 00:04:37;;;;;;;12.75;6.57;;;;;;;2.04;100.00;103222.28;5024044;28;20053;-68
2021/11/23 00:07:04;;;;;;;14.35;6.85;;;;;;;2.00;100.00;103210.72;5020638;28;20053;-68
2021/11/23 00:09:33;;;;;;;18.38;7.53;;;;;;;1.98;100.00;103216.78;5026894;28;20373;-69
2021/11/23 00:12:02;;;;;;;19.00;10.13;;;;;;;1.96;100.00;103214.09;5017602;28;20100;-68
2021/11/23 00:14:31;;;;;;;21.67;9.77;;;;;;;1.94;100.00;103206.94;5026661;28;20084;-69
2021/11/23 00:16:59;;;;;;;20.20;8.48;;;;;;;1.94;100.00;103213.13;5026473;28;20057;-68
2021/11/23 00:19:27;;;;;;;17.55;8.38;;;;;;;1.96;100.00;103213.16;5057000;28;20048;-65
2021/11/23 00:21:55;;;;;;;13.50;7.18;;;;;;;1.98;100.00;103212.41;5022313;28;20048;-66
2021/11/23 00:24:23;;;;;;;14.30;7.28;;;;;;;2.01;100.00;103217.81;5029620;28;20049;-69
2021/11/23 00:26:51;;;;;;;14.57;6.75;;;;;;;2.04;100.00;103214.38;5024619;28;20048;-66
2021/11/23 00:29:20;;;;;;;13.95;7.22;;;;;;;2.10;100.00;103214.66;5023753;28;20045;-75
2021/11/23 00:31:49;;;;;;;13.43;6.88;;;;;;;2.16;100.00;103212.28;5028346;28;20057;-75
2021/11/23 00:34:17;;;;;;;14.45;6.82;;;;;;;2.18;100.00;103199.13;5025076;28;20067;-74
2021/11/23 00:36:45;;;;;;;20.50;7.22;;;;;;;2.22;100.00;103199.34;5026900;28;20122;-75
2021/11/23 00:39:13;;;;;;;13.55;6.55;;;;;;;2.22;100.00;103204.59;5023105;28;20466;-77
2021/11/23 00:41:47;;;;;;;16.67;6.38;;;;;;;2.31;100.00;103208.44;5023101;28;20057;-74
2021/11/23 00:44:15;;;;;;;11.82;5.95;;;;;;;2.33;100.00;103212.03;5027606;28;20496;-76
2021/11/23 00:46:45;;;;;;;16.80;7.45;;;;;;;2.38;100.00;103205.22;5026709;28;20053;-75
2021/11/23 00:49:14;;;;;;;11.52;6.13;;;;;;;2.40;100.00;103200.88;5025021;28;20262;-75
2021/11/23 00:51:43;;;;;;;15.55;6.90;;;;;;;2.44;100.00;103202.84;5028135;28;20466;-74
2021/11/23 00:54:11;;;;;;;14.00;6.97;;;;;;;2.51;100.00;103199.59;5017976;28;20442;-75
2021/11/23 00:56:39;;;;;;;16.63;7.22;;;;;;;2.50;100.00;103197.78;5027985;28;20049;-75
2021/11/23 00:59:07;;;;;;;16.83;7.50;;;;;;;2.55;100.00;103204.13;5026187;28;20136;-75
2021/11/23 01:01:35;;;;;;;11.45;5.97;;;;;;;2.59;100.00;103200.78;5024660;28;20537;-74
2021/11/23 01:04:05;;;;;;;13.73;6.47;;;;;;;2.67;100.00;103201.06;5027930;28;20083;-75
2021/11/23 01:06:34;;;;;;;14.05;6.68;;;;;;;2.72;100.00;103201.25;5022781;28;20144;-74
2021/11/23 01:09:01;;;;;;;12.80;5.88;;;;;;;2.74;100.00;103205.75;5028249;28;20056;-73
2021/11/23 01:11:29;;;;;;;13.02;6.15;;;;;;;2.79;100.00;103212.09;5021816;28;21831;-74
2021/11/23 01:13:57;;;;;;;16.08;6.90;;;;;;;2.84;100.00;103206.97;5019506;28;20294;-74
2021/11/23 01:16:25;;;;;;;14.55;6.43;;;;;;;2.92;100.00;103197.63;5025008;28;20049;-75
2021/11/23 01:18:54;;;;;;;13.07;6.75;;;;;;;2.99;100.00;103204.91;5018127;28;20076;-75
2021/11/23 01:21:23;;;;;;;14.68;6.82;;;;;;;3.04;100.00;103194.53;5025959;28;20136;-74
2021/11/23 01:23:53;;;;;;;13.93;6.15;;;;;;;3.11;100.00;103193.03;5019662;28;20124;-74
2021/11/23 01:26:21;;;;;;;11.35;6.15;;;;;;;3.14;100.00;103190.50;5022455;28;20083;-73
2021/11/23 01:28:51;;;;;;;13.75;6.57;;;;;;;3.22;100.00;103182.84;5025139;28;20050;-75
2021/11/23 01:31:21;;;;;;;12.95;6.18;;;;;;;3.27;100.00;103183.91;5026727;28;20069;-74
2021/11/23 01:33:49;;;;;;;15.30;6.10;;;;;;;3.31;100.00;103199.91;5022514;28;20044;-73
2021/11/23 01:36:17;;;;;;;16.27;6.90;;;;;;;3.34;100.00;103192.13;5021012;28;20044;-74
2021/11/23 01:38:51;;;;;;;11.52;5.78;;;;;;;3.40;100.00;103185.25;5024015;28;20052;-76
2021/11/23 01:41:19;;;;;;;11.48;5.32;;;;;;;3.35;100.00;103183.38;5026457;28;20048;-75
2021/11/23 01:43:47;;;;;;;11.77;6.13;;;;;;;3.42;100.00;103191.47;5021660;28;20057;-74
2021/11/23 01:46:16;;;;;;;16.33;6.15;;;;;;;3.42;100.00;103184.44;5024230;28;20045;-75
2021/11/23 01:48:44;;;;;;;11.18;5.78;;;;;;;3.49;100.00;103189.13;5020971;28;20048;-75
2021/11/23 01:51:21;;;;;;;16.92;6.18;;;;;;;3.52;100.00;103188.31;5024688;28;20544;-68
2021/11/23 01:53:52;;;;;;;13.73;6.35;;;;;;;3.57;100.00;103189.38;5019303;28;20145;-68
2021/11/23 01:56:20;;;;;;;9.90;5.00;;;;;;;3.57;100.00;103186.72;5024868;28;20075;-68
2021/11/23 01:58:50;;;;;;;12.27;6.10;;;;;;;3.62;100.00;103190.44;5022174;28;20084;-68
2021/11/23 02:01:19;;;;;;;11.95;4.82;;;;;;;3.67;100.00;103190.59;5028234;28;20049;-68
2021/11/23 02:03:47;;;;;;;13.63;5.97;;;;;;;3.71;100.00;103188.13;5019903;28;20489;-68
2021/11/23 02:06:16;;;;;;;11.43;6.32;;;;;;;3.73;100.00;103180.25;5026619;28;21760;-68
2021/11/23 02:08:44;;;;;;;11.30;5.38;;;;;;;3.76;100.00;103175.03;5024388;28;20049;-68
2021/11/23 02:11:14;;;;;;;12.95;5.97;;;;;;;3.77;100.00;103179.50;5017578;28;20124;-68
2021/11/23 02:13:46;;;;;;;15.25;5.72;;;;;;;3.81;100.00;103168.16;5022683;28;20046;-68
2021/11/23 02:16:14;;;;;;;13.20;5.15;;;;;;;3.88;100.00;103178.13;5023155;28;20128;-68
2021/11/23 02:18:43;;;;;;;10.80;5.45;;;;;;;3.86;100.00;103169.22;5025001;28;20049;-68
2021/11/23 02:21:13;;;;;;;14.52;5.40;;;;;;;3.93;100.00;103159.75;5024777;28;20104;-68
2021/11/23 02:23:42;;;;;;;11.05;5.18;;;;;;;3.94;100.00;103161.56;5024963;28;20127;-68
2021/11/23 02:26:10;;;;;;;12.15;5.18;;;;;;;3.94;100.00;103158.91;5020347;28;20102;-68
2021/11/23 02:28:38;;;;;;;12.23;5.07;;;;;;;3.93;100.00;103160.66;5027203;28;20064;-68
2021/11/23 02:31:08;;;;;;;11.55;5.63;;;;;;;4.00;100.00;103168.78;5024468;28;20163;-68
2021/11/23 02:33:38;;;;;;;13.55;5.50;;;;;;;4.02;100.00;103169.72;5021979;28;20125;-68
2021/11/23 02:36:12;;;;;;;10.02;5.40;;;;;;;4.01;100.00;103160.91;5014921;28;20055;-68
2021/11/23 02:38:42;;;;;;;10.40;5.05;;;;;;;4.03;100.00;103167.13;5024327;28;20132;-76
2021/11/23 02:41:13;;;;;;;13.93;5.88;;;;;;;4.03;100.00;103155.66;5023287;28;21738;-75
2021/11/23 02:43:42;;;;;;;13.63;5.38;;;;;;;4.05;100.00;103151.31;5024562;28;20502;-75
2021/11/23 02:46:12;;;;;;;10.77;4.88;;;;;;;4.07;100.00;103155.81;5024493;28;20618;-75
2021/11/23 02:48:41;;;;;;;9.95;4.88;;;;;;;4.10;100.00;103148.00;5021065;28;20262;-75
2021/11/23 02:51:14;;;;;;;10.50;5.63;;;;;;;4.13;100.00;103147.19;5020449;28;20049;-76
2021/11/23 02:53:45;;;;;;;9.05;4.78;;;;;;;4.15;100.00;103142.84;5020160;28;20416;-75
2021/11/23 02:56:14;;;;;;;9.80;4.78;;;;;;;4.16;100.00;103142.00;5018543;28;20045;-74
2021/11/23 02:58:47;;;;;;;9.77;5.53;;;;;;;4.19;100.00;103136.81;5028517;28;21316;-75
2021/11/23 03:01:20;;;;;;;8.85;5.22;;;;;;;4.23;100.00;103137.81;5026494;28;20056;-75
2021/11/23 03:03:51;;;;;;;9.88;4.47;;;;;;;4.28;100.00;103136.19;5028384;28;20088;-76
2021/11/23 03:06:21;;;;;;;8.55;5.00;;;;;;;4.33;100.00;103126.66;5026879;28;20080;-74
2021/11/23 03:08:54;;;;;;;11.10;4.45;;;;;;;4.36;100.00;103129.41;5025467;28;20393;-75
2021/11/23 03:11:25;;;;;;;10.85;4.63;;;;;;;4.40;100.00;103123.34;5026859;28;20409;-75
2021/11/23 03:13:53;;;;;;;6.80;4.10;;;;;;;4.46;100.00;103127.91;5026392;28;20227;-75
2021/11/23 03:16:21;;;;;;;10.93;4.05;;;;;;;4.42;100.00;103116.34;5030029;28;20085;-75
2021/11/23 03:18:51;;;;;;;9.95;3.90;;;;;;;4.48;100.00;103121.84;5024460;28;20053;-74
2021/11/23 03:21:21;;;;;;;12.63;4.13;;;;;;;4.48;100.00;103113.00;5028297;28;20405;-74
2021/11/23 03:23:51;;;;;;;9.10;4.00;;;;;;;4.52;100.00;103116.63;5027383;28;20057;-74
2021/11/23 03:26:25;;;;;;;11.93;4.65;;;;;;;4.55;100.00;103114.97;5024219;28;20134;-74
2021/11/23 03:28:53;;;;;;;8.82;3.90;;;;;;;4.53;100.00;103115.78;5029242;28;20152;-75
2021/11/23 03:31:23;;;;;;;11.02;4.30;;;;;;;4.51;100.00;103113.06;5022809;28;20256;-75
2021/11/23 03:33:54;;;;;;;15.00;4.75;;;;;;;4.50;100.00;103121.88;5027420;28;20049;-75
2021/11/23 03:36:23;;;;;;;10.90;3.95;;;;;;;4.49;100.00;103120.06;5023972;28;20223;-75
2021/11/23 03:38:53;;;;;;;8.95;3.45;;;;;;;4.48;100.00;103119.19;5028651;28;20067;-75
2021/11/23 03:41:21;;;;;;;10.10;3.55;;;;;;;4.49;100.00;103123.63;5031059;28;20061;-75
2021/11/23 03:43:51;;;;;;;8.93;4.40;;;;;;;4.53;100.00;103124.63;5024924;28;20060;-75
2021/11/23 03:46:20;;;;;;;11.05;4.38;;;;;;;4.48;100.00;103113.00;5031928;28;20049;-74
2021/11/23 03:48:49;;;;;;;7.32;4.22;;;;;;;4.53;100.00;103127.25;5023405;28;20486;-75
2021/11/23 03:51:18;;;;;;;9.02;3.92;;;;;;;4.54;100.00;103126.41;5032336;28;20390;-74
2021/11/23 03:53:47;;;;;;;7.63;3.97;;;;;;;4.60;100.00;103123.06;5023043;28;20080;-74
2021/11/23 03:56:19;;;;;;;12.02;4.70;;;;;;;4.63;100.00;103124.03;5024983;28;20168;-75
2021/11/23 03:58:48;;;;;;;10.98;4.68;;;;;;;4.67;100.00;103133.84;5022701;28;20118;-74
2021/11/23 04:01:16;;;;;;;8.27;3.90;;;;;;;4.70;100.00;103122.47;5031413;28;20048;-74
2021/11/23 04:03:49;;;;;;;9.95;4.40;;;;;;;4.72;100.00;103119.88;5020658;28;20129;-75
2021/11/23 04:06:17;;;;;;;9.57;4.10;;;;;;;4.75;100.00;103114.63;5032176;28;20111;-74
2021/11/23 04:08:49;;;;;;;9.23;4.07;;;;;;;4.79;100.00;103122.72;5023803;28;20591;-74
2021/11/23 04:11:19;;;;;;;7.28;3.45;;;;;;;4.82;100.00;103120.16;5026948;28;20052;-74
2021/11/23 04:13:47;;;;;;;8.20;3.67;;;;;;;4.85;100.00;103124.63;5020971;28;20049;-74
2021/11/23 04:16:17;;;;;;;10.15;4.40;;;;;;;4.93;100.00;103124.84;5028494;28;20146;-74
2021/11/23 04:18:51;;;;;;;10.85;4.28;;;;;;;4.95;100.00;103125.78;5024417;28;20460;-74
2021/11/23 04:21:21;;;;;;;9.85;3.88;;;;;;;4.94;100.00;103123.97;5024115;28;20376;-74
2021/11/23 04:23:51;;;;;;;9.85;4.30;;;;;;;4.98;100.00;103121.47;5026092;28;20044;-74
2021/11/23 04:26:20;;;;;;;11.52;3.88;;;;;;;5.01;100.00;103118.03;5023149;28;20049;-74
2021/11/23 04:28:49;;;;;;;7.32;4.05;;;;;;;5.03;100.00;103121.59;5031420;28;20150;-74
2021/11/23 04:31:21;;;;;;;6.15;3.75;;;;;;;4.99;100.00;103107.41;5024060;28;20053;-74
2021/11/23 04:33:50;;;;;;;7.35;3.80;;;;;;;5.07;100.00;103115.53;5030294;28;20041;-69
2021/11/23 04:36:24;;;;;;;11.82;4.45;;;;;;;5.12;100.00;103113.03;5024024;28;20065;-68
2021/11/23 04:38:56;;;;;;;13.40;4.10;;;;;;;5.15;100.00;103115.75;5027354;28;20056;-68
2021/11/23 04:41:29;;;;;;;11.68;3.60;;;;;;;5.16;100.00;103106.94;5025793;28;20110;-68
2021/11/23 04:43:58;;;;;;;10.60;4.03;;;;;;;5.18;100.00;103111.44;5021425;28;20056;-68
2021/11/23 04:46:26;;;;;;;7.55;3.72;;;;;;;5.11;100.00;103097.97;5021494;28;20490;-68
2021/11/23 04:48:56;;;;;;;7.63;3.83;;;;;;;5.23;100.00;103111.56;5028825;28;20068;-68
2021/11/23 04:51:24;;;;;;;7.90;4.25;;;;;;;5.19;100.00;103096.44;5028018;28;20042;-68
2021/11/23 04:53:57;;;;;;;9.77;3.85;;;;;;;5.24;100.00;103098.38;5019942;28;20060;-68
2021/11/23 04:56:26;;;;;;;8.95;3.70;;;;;;;5.22;100.00;103100.06;5023171;28;20056;-68
2021/11/23 04:58:55;;;;;;;9.35;3.92;;;;;;;5.24;100.00;103105.41;5027821;28;20072;-68
2021/11/23 05:01:25;;;;;;;10.85;4.00;;;;;;;5.26;100.00;103097.50;5023294;28;20307;-68
2021/11/23 05:03:55;;;;;;;9.73;3.88;;;;;;;5.29;100.00;103097.59;5025255;28;20080;-68
2021/11/23 05:06:23;;;;;;;6.88;3.95;;;;;;;5.31;100.00;103096.78;5022980;28;20056;-68
2021/11/23 05:08:51;;;;;;;15.07;4.43;;;;;;;5.35;100.00;103090.69;5022790;28;20085;-68
2021/11/23 05:11:21;;;;;;;11.27;4.53;;;;;;;5.37;100.00;103093.38;5024137;28;20106;-68
2021/11/23 05:13:51;;;;;;;11.25;4.20;;;;;;;5.36;100.00;103089.84;5020815;28;20057;-68
2021/11/23 05:16:20;;;;;;;9.27;3.75;;;;;;;5.36;100.00;103084.56;5024723;28;20427;-68
2021/11/23 05:18:48;;;;;;;9.23;3.95;;;;;;;5.36;100.00;103088.94;5023208;28;20049;-69
2021/11/23 05:21:16;;;;;;;9.40;4.00;;;;;;;5.32;100.00;103085.31;5027912;28;20050;-69
2021/11/23 05:23:44;;;;;;;9.25;3.83;;;;;;;5.32;100.00;103093.25;5021700;28;20472;-68
2021/11/23 05:26:12;;;;;;;9.43;3.90;;;;;;;5.36;100.00;103099.53;5023542;28;20122;-73
2021/11/23 05:28:40;;;;;;;12.40;5.35;;;;;;;5.35;100.00;103097.75;5019957;28;20523;-74
2021/11/23 05:31:09;;;;;;;9.43;3.80;;;;;;;5.37;100.00;103094.28;5025396;28;20132;-74
2021/11/23 05:33:37;;;;;;;11.55;4.38;;;;;;;5.41;100.00;103095.25;5025341;28;20498;-73
2021/11/23 05:36:05;;;;;;;10.10;4.38;;;;;;;5.42;100.00;103089.97;5024623;28;20293;-73
2021/11/23 05:38:34;;;;;;;11.05;3.83;;;;;;;5.45;100.00;103091.84;5023537;28;20140;-73
2021/11/23 05:41:01;;;;;;;7.60;3.83;;;;;;;5.47;100.00;103100.72;5024345;28;20374;-74
2021/11/23 05:43:31;;;;;;;8.85;4.05;;;;;;;5.52;100.00;103088.47;5028716;28;20081;-73
2021/11/23 05:45:59;;;;;;;6.47;3.17;;;;;;;5.50;100.00;103100.78;5025152;28;20209;-75
2021/11/23 05:48:28;;;;;;;10.38;4.60;;;;;;;5.50;100.00;103103.44;5022112;28;20429;-75
2021/11/23 05:51:02;;;;;;;11.65;4.15;;;;;;;5.53;100.00;103100.84;5030210;28;20055;-75
2021/11/23 05:53:33;;;;;;;17.95;4.95;;;;;;;5.53;100.00;103098.19;5015716;28;20063;-75
2021/11/23 05:56:02;;;;;;;11.43;4.10;;;;;;;5.58;100.00;103093.94;5028552;28;20061;-75
2021/11/23 05:58:30;;;;;;;8.68;3.50;;;;;;;5.65;100.00;103091.41;5021974;28;20649;-75
2021/11/23 06:00:58;;;;;;;10.35;4.35;;;;;;;5.65;100.00;103092.31;5027074;28;20060;-75
2021/11/23 06:03:28;;;;;;;10.75;4.32;;;;;;;5.65;100.00;103084.34;5025642;28;20087;-74
2021/11/23 06:05:57;;;;;;;8.60;3.85;;;;;;;5.69;100.00;103086.25;5023923;28;20052;-74
2021/11/23 06:08:25;;;;;;;9.90;4.15;;;;;;;5.74;100.00;103084.59;5023508;28;20051;-74
2021/11/23 06:10:53;;;;;;;11.27;4.43;;;;;;;5.69;100.00;103096.84;5022140;28;20079;-67
2021/11/23 06:13:24;;;;;;;9.73;3.40;;;;;;;5.69;100.00;103090.66;5022510;28;20073;-67
2021/11/23 06:15:52;;;;;;;10.00;3.53;;;;;;;5.73;100.00;103087.19;5021522;28;20056;-67
2021/11/23 06:18:20;;;;;;;9.48;4.00;;;;;;;5.69;100.00;103088.88;5027056;28;20060;-75
2021/11/23 06:20:50;;;;;;;9.88;3.55;;;;;;;5.66;100.00;103086.16;5021531;28;20111;-75
2021/11/23 06:23:20;;;;;;;9.15;3.60;;;;;;;5.66;100.00;103090.56;5027246;28;20131;-74
2021/11/23 06:25:50;;;;;;;12.32;4.22;;;;;;;5.60;100.00;103084.25;5025547;28;20080;-74
2021/11/23 06:28:21;;;;;;;12.93;4.45;;;;;;;5.61;100.00;103091.34;5021493;28;20064;-68
2021/11/23 06:30:50;;;;;;;10.35;5.47;;;;;;;5.57;100.00;103085.94;5025364;28;20053;-68
2021/11/23 06:33:19;;;;;;;14.15;5.05;;;;;;;5.54;100.00;103089.41;5028484;28;20061;-68
2021/11/23 06:35:47;;;;;;;12.02;4.38;;;;;;;5.58;100.00;103095.66;5026936;28;20076;-68
2021/11/23 06:38:16;;;;;;;7.88;3.85;;;;;;;5.52;100.00;103100.84;5026750;28;20113;-68
2021/11/23 06:40:48;;;;;;;13.43;4.35;;;;;;;5.47;100.00;103102.47;5029788;28;20045;-69
2021/11/23 06:43:17;;;;;;;9.15;3.67;;;;;;;5.40;100.00;103099.66;5025558;28;20246;-67
2021/11/23 06:45:45;;;;;;;9.20;4.25;;;;;;;5.43;100.00;103106.75;5025362;28;20107;-68
2021/11/23 06:48:13;;;;;;;9.77;4.28;;;;;;;5.41;100.00;103112.03;5031248;28;20041;-67
2021/11/23 06:50:41;;;;;;;10.68;4.07;;;;;;;5.39;100.00;103111.09;5023711;28;20270;-67
2021/11/23 06:53:11;;;;;;;6.93;3.60;;;;;;;5.43;100.00;103110.31;5025517;28;20531;-74
2021/11/23 06:55:41;;;;;;;11.10;4.38;;;;;;;5.45;100.00;103107.72;5029715;28;20693;-74
2021/11/23 06:58:11;;;;;;;9.02;4.60;;;;;;;5.49;100.00;103113.97;5025763;28;20049;-67
2021/11/23 07:00:40;;;;;;;9.60;4.47;;;;;;;5.47;100.00;103116.59;5031412;28;20071;-70
2021/11/23 07:03:09;;;;;;;10.43;4.07;;;;;;;5.44;100.00;103116.50;5025626;28;20045;-66
2021/11/23 07:05:37;;;;;;;9.27;4.18;;;;;;;5.41;100.00;103116.44;5027126;28;21049;-69
2021/11/23 07:08:25;;;;;;;10.13;4.72;;;;;;;5.39;100.00;103124.31;5025758;28;20132;-67
2021/11/23 07:10:53;;;;;;;10.40;4.82;;;;;;;5.38;100.00;103126.94;5024676;28;20099;-67
2021/11/23 07:13:22;;;;;;;12.27;5.22;;;;;;;5.40;100.00;103133.19;5024337;28;21114;-69
2021/11/23 07:15:52;;;;;;;10.30;5.57;;;;;;;5.41;100.00;103127.00;5024672;28;20322;-67
2021/11/23 07:18:20;;;;;;;17.98;8.20;;;;;;;5.51;100.00;103141.41;5028982;28;20076;-67
2021/11/23 07:20:49;;;;;;;15.82;6.97;;;;;;;5.47;100.00;103137.78;5024532;28;20297;-67
2021/11/23 07:23:17;;;;;;;11.77;6.18;;;;;;;5.51;100.00;103147.56;5029284;28;20053;-68
2021/11/23 07:25:45;;;;;;;15.18;6.57;;;;;;;5.57;100.00;103133.63;5024867;28;20834;-67
2021/11/23 07:28:13;;;;;;;13.40;5.90;;;;;;;5.57;100.00;103137.16;5024572;28;20069;-68
2021/11/23 07:30:43;;;;;;;10.15;5.32;;;;;;;5.54;100.00;103137.06;5023845;28;20091;-68
2021/11/23 07:33:11;;;;;;;13.57;6.50;;;;;;;5.53;100.00;103139.69;5032739;28;20052;-70
2021/11/23 07:35:38;;;;;;;12.70;6.50;;;;;;;5.47;100.00;103143.06;5024907;28;20049;-69
2021/11/23 07:38:06;;;;;;;13.23;5.38;;;;;;;5.49;100.00;103138.72;5022196;28;20277;-75
2021/11/23 07:40:35;;;;;;;10.38;5.60;;;;;;;5.48;100.00;103136.91;5028239;28;20135;-75
2021/11/23 07:43:03;;;;;;;10.85;5.00;;;;;;;5.54;100.00;103137.06;5019770;28;20057;-69
2021/11/23 07:45:39;;;;;;;11.15;4.95;;;;;;;5.50;100.00;103142.25;5023060;28;20568;-70
2021/11/23 07:48:11;;;;;;;11.73;4.80;;;;;;;5.47;100.00;103151.03;5025176;28;20131;-71
2021/11/23 07:50:40;;;;;;;10.63;4.78;;;;;;;5.46;100.00;103150.97;5023194;28;20139;-69
2021/11/23 07:53:10;;;;;;;11.02;5.35;;;;;;;5.48;100.00;103150.16;5005691;28;20049;-70
2021/11/23 07:55:38;;;;;;;11.85;5.07;;;;;;;5.51;100.00;103154.63;5027050;28;20101;-69
2021/11/23 07:58:07;;;;;;;12.07;5.50;;;;;;;5.64;100.00;103167.34;5022856;28;20492;-69
2021/11/23 08:00:35;;;;;;;13.48;5.90;;;;;;;5.73;100.00;103158.72;5027408;28;20057;-69
2021/11/23 08:03:03;;;;;;;9.68;5.50;;;;;;;5.77;100.00;103158.84;5023514;28;20057;-69
2021/11/23 08:05:34;;;;;;;13.02;5.57;;;;;;;5.84;100.00;103158.97;5022061;28;20048;-69
2021/11/23 08:08:03;;;;;;;10.50;5.43;;;;;;;5.89;100.00;103162.63;5027996;28;20329;-71
2021/11/23 08:10:31;;;;;;;10.68;5.13;;;;;;;5.88;100.00;103161.75;5027412;28;20060;-76
2021/11/23 08:13:00;;;;;;;11.65;4.65;;;;;;;5.87;100.00;103167.91;5016725;28;20048;-76
2021/11/23 08:15:28;;;;;;;13.23;4.95;;;;;;;5.90;100.00;103167.97;5025730;28;20045;-76
2021/11/23 08:17:56;;;;;;;9.90;5.13;;;;;;;5.92;100.00;103165.38;5019636;28;20104;-70
2021/11/23 08:20:24;;;;;;;10.05;4.88;;;;;;;5.97;100.00;103171.72;5026971;28;20723;-71
2021/11/23 08:22:55;;;;;;;12.63;4.32;;;;;;;6.01;100.00;103175.34;5020591;28;20839;-70
2021/11/23 08:25:24;;;;;;;9.88;4.78;;;;;;;6.08;100.00;103188.78;4951818;28;2534102;-70
2021/11/23 08:27:54;;;;;;;11.68;5.13;;;;;;;6.13;100.00;103172.97;5024723;28;20053;-69
2021/11/23 08:30:22;;;;;;;9.88;5.05;;;;;;;6.15;100.00;103180.13;5028257;28;20045;-70
2021/11/23 08:32:52;;;;;;;14.82;5.47;;;;;;;6.22;100.00;103180.28;5025452;28;20111;-70
2021/11/23 08:35:20;;;;;;;15.43;5.38;;;;;;;6.23;100.00;103184.69;5023904;28;20489;-69
2021/11/23 08:37:49;;;;;;;15.95;6.18;;;;;;;6.28;100.00;103183.03;5025407;28;20140;-69
2021/11/23 08:40:21;;;;;;;15.30;5.32;;;;;;;6.31;100.00;103181.34;5023793;28;20050;-69
2021/11/23 08:42:52;;;;;;;12.73;5.38;;;;;;;6.38;100.00;103186.81;5027484;28;20144;-69
2021/11/23 08:45:21;;;;;;;11.35;5.60;;;;;;;6.42;100.00;103172.75;5024259;28;20777;-76
2021/11/23 08:47:49;;;;;;;15.43;5.72;;;;;;;6.47;100.00;103184.34;5026431;28;20366;-76
2021/11/23 08:50:18;;;;;;;10.60;5.45;;;;;;;6.55;100.00;103180.13;5022925;28;20497;-75
2021/11/23 08:52:49;;;;;;;9.90;5.50;;;;;;;6.65;100.00;103179.44;5024150;28;20121;-77
2021/11/23 08:55:18;;;;;;;13.80;5.95;;;;;;;6.74;100.00;103186.72;5019335;28;20267;-76
2021/11/23 08:57:47;;;;;;;11.00;5.05;;;;;;;6.83;100.00;103181.63;5030106;28;20140;-76
2021/11/23 09:00:17;;;;;;;12.82;5.53;;;;;;;6.97;100.00;103181.88;5026465;28;20045;-75
2021/11/23 09:02:49;;;;;;;11.60;6.20;;;;;;;7.15;100.00;103185.78;5023267;28;20080;-76
2021/11/23 09:05:23;;;;;;;18.10;6.82;;;;;;;7.19;100.00;103180.56;5025551;28;20489;-77
2021/11/23 09:07:52;;;;;;;;;;;;;;;7.24;100.00;103183.31;5025391;28;20054;-75
2021/11/23 09:10:23;;;;;;;12.65;5.93;;;;;;;7.31;100.00;103181.66;5028832;28;20031;-75
2021/11/23 09:12:56;;;;;;;13.30;5.65;;;;;;;7.39;100.00;103180.94;5018655;28;20126;-74
2021/11/23 09:15:25;;;;;;;18.30;6.23;;;;;;;7.49;100.00;103181.97;5023290;28;20103;-73
2021/11/23 09:17:55;;;;;;;11.20;5.45;;;;;;;7.58;100.00;103182.16;5021648;28;22395;-74
2021/11/23 09:20:23;;;;;;;13.63;5.65;;;;;;;7.62;100.00;103184.00;5023394;28;20045;-74
2021/11/23 09:22:52;;;;;;;14.13;5.65;;;;;;;7.65;100.00;103185.81;5021614;28;20115;-73
2021/11/23 09:25:20;;;;;;;12.93;6.35;;;;;;;7.66;100.00;103188.50;5029160;28;20429;-74
2021/11/23 09:27:48;;;;;;;12.88;5.80;;;;;;;7.66;100.00;103200.88;5023777;28;20053;-74
2021/11/23 09:30:18;;;;;;;11.45;5.90;;;;;;;7.70;100.00;103202.75;5022817;28;20060;-73
2021/11/23 09:32:48;;;;;;;14.80;5.35;;;;;;;7.80;100.00;103203.81;5019707;28;20058;-74
2021/11/23 09:35:16;;;;;;;13.13;4.20;;;;;;;7.93;100.00;103204.91;5025958;28;20045;-74
2021/11/23 09:37:44;;;;;;;10.30;3.55;;;;;;;8.04;100.00;103203.31;5024279;28;20057;-74
2021/11/23 09:40:15;;;;;;;9.07;4.03;;;;;;;8.16;100.00;103203.50;5011451;28;20261;-74
2021/11/23 09:42:42;;;;;;;11.88;3.58;;;;;;;8.22;100.00;103200.03;5021649;28;20197;-74
2021/11/23 09:45:11;;;;;;;12.32;3.08;;;;;;;8.25;100.00;103199.19;5023515;28;20536;-68
2021/11/23 09:47:43;;;;;;;9.98;3.15;;;;;;;8.26;100.00;103195.66;5023372;28;20497;-68
2021/11/23 09:50:13;;;;;;;10.13;2.90;;;;;;;8.32;100.00;103190.44;5021586;28;20359;-68
2021/11/23 09:52:41;;;;;;;7.43;2.60;;;;;;;8.36;100.00;103190.50;5021817;28;20052;-69
2021/11/23 09:55:16;;;;;;;12.40;2.65;;;;;;;8.39;100.00;103189.66;5024508;28;20049;-69
2021/11/23 09:57:46;;;;;;;9.18;3.28;;;;;;;8.44;100.00;103193.31;5024061;28;20056;-75
2021/11/23 10:00:26;;;;;;;7.43;2.78;;;;;;;8.47;100.00;103193.34;5021494;28;20049;-75
2021/11/23 10:02:59;;;;;;;7.00;2.25;;;;;;;8.52;100.00;103198.75;5027483;28;20493;-75
2021/11/23 10:05:32;;;;;;;8.07;2.42;;;;;;;8.52;100.00;103202.28;5021890;28;20076;-75
2021/11/23 10:08:07;;;;;;;9.77;2.37;;;;;;;8.53;100.00;103197.84;5029710;28;20134;-75
2021/11/23 10:10:42;;;;;;;7.47;2.45;;;;;;;8.55;100.00;103199.69;5022867;28;20056;-75
2021/11/23 10:13:10;;;;;;;5.65;2.30;;;;;;;8.56;100.00;103198.81;5018825;28;20049;-75
2021/11/23 10:15:41;;;;;;;8.77;2.60;;;;;;;8.55;100.00;103199.69;5021477;28;20116;-75
2021/11/23 10:18:13;;;;;;;9.45;2.78;;;;;;;8.54;100.00;103197.00;5026882;28;20061;-75
2021/11/23 10:20:43;;;;;;;8.93;2.78;;;;;;;8.65;100.00;103194.47;5024753;28;20646;-75
2021/11/23 10:23:23;;;;;;;6.15;2.85;;;;;;;8.90;100.00;103198.34;5020693;28;20053;-68
2021/11/23 10:25:55;;;;;;;9.82;3.35;;;;;;;9.14;100.00;103184.44;5025449;28;20144;-68
2021/11/23 10:28:27;;;;;;;5.97;2.95;;;;;;;9.44;100.00;103194.53;5025392;28;20860;-68
2021/11/23 10:30:56;;;;;;;9.85;3.92;;;;;;;9.63;100.00;103190.25;5021614;28;20071;-69
2021/11/23 10:33:29;;;;;;;8.80;2.60;;;;;;;9.45;100.00;103188.31;5017701;28;20053;-68
2021/11/23 10:35:59;;;;;;;6.38;2.80;;;;;;;9.44;100.00;103196.31;5024208;28;20083;-68
2021/11/23 10:38:28;;;;;;;8.63;2.97;;;;;;;9.44;100.00;103190.97;5034503;28;21058;-68
2021/11/23 10:40:56;;;;;;;8.38;2.58;;;;;;;9.37;100.00;103194.47;5026896;28;20567;-68
2021/11/23 10:43:24;;;;;;;7.00;2.90;;;;;;;9.30;100.00;103193.50;5025825;28;20148;-75
2021/11/23 10:45:55;;;;;;;7.47;2.30;;;;;;;9.12;100.00;103194.19;5022246;28;20549;-75
2021/11/23 10:48:27;;;;;;;5.82;2.30;;;;;;;9.02;100.00;103192.28;5024800;28;20053;-74
2021/11/23 10:51:04;;;;;;;5.97;1.77;;;;;;;8.98;100.00;103194.00;5021429;28;20052;-74
2021/11/23 10:53:33;;;;;;;5.03;1.77;;;;;;;8.89;100.00;103184.16;5022194;28;20055;-76
2021/11/23 10:56:10;;;;;;;5.13;1.67;;;;;;;8.89;100.00;103181.50;5023460;28;20053;-73
2021/11/23 10:58:38;;;;;;;9.43;2.13;;;;;;;8.96;100.00;103177.13;5025396;28;20072;-74
2021/11/23 11:01:09;;;;;;;5.78;2.05;;;;;;;8.96;100.00;103169.16;5022403;28;20045;-75
2021/11/23 11:03:40;;;;;;;11.40;2.20;;;;;;;9.03;100.00;103165.66;5023303;28;20128;-75
2021/11/23 11:06:09;;;;;;;8.10;1.85;;;;;;;9.02;100.00;103173.63;5021317;28;20128;-75
2021/11/23 11:08:38;;;;;;;5.32;2.20;;;;;;;8.98;100.00;103167.38;5024109;28;20064;-75
2021/11/23 11:11:15;;;;;;;7.82;2.10;;;;;;;9.10;100.00;103170.19;5017750;28;20510;-75
2021/11/23 11:13:47;;;;;;;7.03;2.28;;;;;;;9.15;100.00;103170.25;5029746;28;20076;-75
2021/11/23 11:16:16;;;;;;;6.30;1.90;;;;;;;9.24;100.00;103170.31;5024697;28;20061;-74
2021/11/23 11:19:03;;;;;;;6.85;2.53;;;;;;;9.23;100.00;103164.97;5025420;28;20480;-75
2021/11/23 11:21:31;;;;;;;5.50;2.05;;;;;;;9.34;100.00;103153.56;5027691;28;21304;-76
2021/11/23 11:24:25;;;;;;;7.70;2.00;;;;;;;9.38;100.00;103153.59;5026012;28;20094;-76
2021/11/23 11:26:56;;;;;;;4.68;1.95;;;;;;;9.51;100.00;103152.84;5029163;28;20081;-76
2021/11/23 11:29:28;;;;;;;4.90;2.00;;;;;;;9.65;100.00;103152.97;5022822;28;20143;-76
2021/11/23 11:31:59;;;;;;;6.45;2.05;;;;;;;9.66;100.00;103149.41;5029042;28;20136;-76